Creil, France

3:43 PM CET on February 10, 2016 (GMT +0100)
Creil Air Base | | Change Station
CLOSE
Current Station
Airport
Location: Creil,
Elevation: 289 ft
Nearby Weather Stations

Elev 289 ft 49.25 °N, 2.52 °E | Updated 13 minutes ago

Light Rain
Light Rain
45 °F
Feels Like 38 °F
N
14
Wind Variable Wind from West

Today
High -- | Low -- °F
--% Chance of Precip.
Yesterday
High -- | Low -- °F
Precip. -- in
Pressure 29.53 in
Visibility 6.2 miles
Clouds Mostly Cloudy 2600 ft
Overcast 3500 ft
Windchill 38 °F
Dew Point 37 °F
Humidity 76%
Rainfall 0.00 in
Snow Depth Not available.
8:08 AM 6:00 PM
Waxing Crescent, 5% visible
METAR LFPC 101430Z AUTO 26012KT 9999 -RA BKN026 OVC035 07/03 Q1000
Pressure 29.53 in
Visibility 6.2 miles
Clouds Mostly Cloudy 2600 ft
Overcast 3500 ft
Windchill 38 °F
Dew Point 37 °F
Humidity 76%
Rainfall 0.00 in
Snow Depth Not available.
8:08 AM 6:00 PM
Waxing Crescent, 5% visible
METAR LFPC 101430Z AUTO 26012KT 9999 -RA BKN026 OVC035 07/03 Q1000

10-Day Weather Forecast

Almanac

Astronomy

Feb. 10, 2016 Rise Set
Actual Time
Civil Twilight
Nautical Twilight
Astronomical Twilight
Moon
Length of Visible Light
Length of Day
Tomorrow will be .
, % of the Moon is Illuminated

Today's Extremes

Country Highs Country Lows

Community

WunderPhotos

Upload Photos

1,891,854 photos uploaded!

WunderBlog® & News

Nearby

Air Quality

  Air Quality AQ Index Pollutant
Not available.

Snow Depth

Station Depth Elevation

Earthquake Activity

City Distance Mag. Time & Date
Minimum magnitude displayed is 2.5.

Coastal Water Temperatures

Place Temperature

Stations

Nearby Weather Stations

Station Location Temp. Windchill Dew Point Humidity Wind Precip. Elev Updated Type